Winsum, Netherlands
Current Conditions -  °F | °C
As of 1:25 AM on Saturday 22 Nov 2014 (Local Time) from EHGG Reporting Station
Clear Clear  
Wind Chill: 34°   Ceiling: Unl
Heat Index: 39°   Visibility: 6mi
Dew Point: 36°   Wind: 8mph
Humidity: 87%   Direction: 100°E
Pressure: 30.12"   Gusts: NA
Location:  53.33°N, 6.52°E
Report Text: EHGG 220025Z AUTO 10007KT 070V140 9000 NSC 04/02 Q1020
Loading
Personal Weather Stations






























Interactive Weather Map New forecast layout! Learn more

10-Day Weather Forecast

Advertisements
Track Severe Weather on mobile